Skip Navigation Links
NOAA logo - Click to go to the NOAA homepage
NOAA's National Weather Service
Alaska Aviation Weather Unit
  NWS logo - Click to go to the NWS homepage
Left Navbar Graphic     02 AKDT = 10 GMT

   
NOAA is celebrating 200 years of science, service, and stewardship. Visit the NOAA 200th celebration Web site to learn more.
USA.gov is the U.S. Government's official Web portal to all Federal, state and local government Web resources and services.
Facebook
NWS on Facebook

AAWU Home :: Display TAF Add Bookmark
METAR PAJC 270456Z AUTO 06007KT 10SM OVC037 00/M06 A2949 RMK AO2
     RAB06E15UPB15E19 SLP985 P0000 T00001056 FZRANO=

METAR PAJC 270556Z AUTO 09005KT 10SM SCT039 SCT055 M01/M06 A2948 RMK AO2
     SLP984 60000 T10111061 10006 21011 56011 FZRANO=

METAR PAJC 270656Z AUTO 06006KT 10SM BKN036 OVC044 M01/M06 A2948 RMK
 AO2 SLP982 T10061056 FZRANO=

METAR PAJC 270756Z AUTO 04008KT 10SM FEW035 OVC050 00/M06 A2947 RMK AO2
     SLP979 T00001061 400061056 FZRANO=

METAR PAJC 270856Z AUTO 04008KT 10SM SCT026 SCT043 OVC055 00/M04 A2946
     RMK AO2 SLP977 T00001044 58007 FZRANO=

SPECI PAJC 270915Z AUTO 03009KT 10SM BKN025 BKN032 OVC050 00/M04 A2946
     RMK AO2 FZRANO=

METAR PAJC 270956Z AUTO 04008KT 9SM SCT024 BKN029 OVC034 00/M05 A2945
     RMK AO2 UPB35E37SNB21E35B37E52 SLP973 P0000 T00001050
     FZRANO=

SPECI PAJC 271016Z AUTO 03010KT 9SM -SN FEW024 BKN030 OVC047 00/M05
     A2945 RMK AO2 SNB05 P0000 FZRANO=


NOAA's National Weather Service
Alaska Aviation Weather Unit
6930 Sand Lake Road
Anchorage, AK 99502-1845
Disclaimer
Credits
Glossary
Privacy Policy
About Us
Career Opportunities
Contact AAWU Internet Services Site last modified: April, 17th 2012